Time;durP1;ratioP1;P1;durP2;ratioP2;P2;SDS_P1;SDS_P2;PMS_P1;PMS_P2;Temp;Humidity;BMP_temperature;BMP_pressure;BME280_temperature;BME280_humidity;BME280_pressure;Samples;Min_cycle;Max_cycle;Signal;HPM_P1;HPM_P2
2022/03/26 02:10:51;;;;;;;36.40;18.15;;;;;;;7.64;46.80;101650.28;4907908;29;20048;-89
2022/03/26 02:13:25;;;;;;;34.17;18.58;;;;;;;7.69;46.65;101651.09;4910926;29;20044;-88
2022/03/26 02:15:57;;;;;;;41.70;19.30;;;;;;;7.42;47.28;101613.72;4909239;29;20146;-88
2022/03/26 02:18:25;;;;;;;37.20;18.35;;;;;;;7.13;47.45;101571.97;4912044;29;20072;-91
2022/03/26 02:21:06;;;;;;;35.70;19.17;;;;;;;7.32;47.78;101621.75;4910139;29;20059;-90
2022/03/26 02:23:34;;;;;;;36.78;18.23;;;;;;;7.31;47.81;101627.06;4910106;29;20084;-88
2022/03/26 02:26:05;;;;;;;34.90;19.58;;;;;;;7.04;48.21;101588.81;4915626;29;20104;-89
2022/03/26 02:28:37;;;;;;;35.08;18.52;;;;;;;7.30;47.92;101636.72;4901685;29;20048;-91
2022/03/26 02:31:11;;;;;;;35.13;18.48;;;;;;;7.06;48.67;101601.94;4907256;29;20080;-88
2022/03/26 02:33:42;;;;;;;36.00;18.70;;;;;;;7.12;48.04;101618.53;4911108;29;20124;-88
2022/03/26 02:36:24;;;;;;;37.03;18.80;;;;;;;7.03;48.67;101601.09;4914019;29;20048;-88
2022/03/26 02:38:53;;;;;;;36.15;18.55;;;;;;;7.14;48.68;101624.66;4892891;29;20048;-88
2022/03/26 02:41:31;;;;;;;37.72;19.02;;;;;;;7.20;48.81;101639.50;4917217;29;20083;-88
2022/03/26 02:43:58;;;;;;;37.40;19.10;;;;;;;7.15;49.57;101639.56;4915122;29;20059;-86
2022/03/26 02:46:26;;;;;;;41.45;19.65;;;;;;;7.06;49.48;101647.59;4909124;29;20085;-87
2022/03/26 02:49:07;;;;;;;;;;;;;;;6.98;49.86;101649.44;4899615;29;20048;-86
2022/03/26 02:51:36;;;;;;;42.92;20.40;;;;;;;6.65;50.92;101625.25;4915647;29;19931;-87
2022/03/26 02:54:04;;;;;;;39.75;20.20;;;;;;;6.47;51.03;101609.66;4915629;29;20115;-88
2022/03/26 02:56:31;;;;;;;41.40;19.95;;;;;;;6.63;50.99;101650.72;4916268;29;20135;-90
2022/03/26 02:59:02;;;;;;;41.38;21.00;;;;;;;6.62;51.30;101650.72;4912619;29;20112;-88
2022/03/26 03:01:32;;;;;;;39.78;19.48;;;;;;;6.48;51.34;101629.81;4916722;29;20092;-87
2022/03/26 03:04:05;;;;;;;38.72;19.33;;;;;;;6.39;50.63;101614.13;4921658;29;20155;-87
2022/03/26 03:06:35;;;;;;;;;;;;;;;6.66;51.02;101657.72;4924070;29;20058;-87
2022/03/26 03:09:07;;;;;;;35.28;19.05;;;;;;;6.65;50.63;101654.19;4907107;29;20735;-86
2022/03/26 03:11:47;;;;;;;35.40;18.48;;;;;;;6.39;50.15;101614.13;4922429;29;20048;-85
2022/03/26 03:14:14;;;;;;;37.38;20.48;;;;;;;6.54;50.86;101642.06;4923398;29;20048;-86
2022/03/26 03:16:45;;;;;;;34.15;18.55;;;;;;;6.54;50.79;101637.66;4927212;29;20055;-86
2022/03/26 03:19:22;;;;;;;36.58;19.55;;;;;;;6.43;50.73;101628.16;4921447;29;20048;-88
2022/03/26 03:21:52;;;;;;;40.38;19.27;;;;;;;6.55;51.46;101651.69;4919031;29;20514;-87
2022/03/26 03:24:23;;;;;;;38.05;19.27;;;;;;;6.26;51.30;101599.38;4918983;29;20091;-87
2022/03/26 03:26:54;;;;;;;36.42;18.63;;;;;;;6.32;51.41;101607.19;4922310;29;20052;-89
2022/03/26 03:29:30;;;;;;;37.10;18.60;;;;;;;6.10;51.62;101575.00;4920462;29;20051;-87
2022/03/26 03:32:00;;;;;;;37.53;19.08;;;;;;;6.54;51.73;101653.44;4921934;29;20048;-87
2022/03/26 03:34:35;;;;;;;41.25;19.63;;;;;;;6.43;51.82;101629.03;4904791;29;20055;-88
2022/03/26 03:37:05;;;;;;;39.28;18.80;;;;;;;6.40;51.30;101628.16;4903439;29;20482;-90
2022/03/26 03:39:34;;;;;;;35.10;18.40;;;;;;;6.37;51.33;101609.78;4920844;29;20044;-88
2022/03/26 03:42:09;;;;;;;37.83;19.20;;;;;;;6.45;51.30;101627.25;4914016;29;20416;-87
2022/03/26 03:44:38;;;;;;;33.38;18.13;;;;;;;6.62;51.75;101650.72;4915526;29;20096;-87
2022/03/26 03:47:15;;;;;;;38.85;20.00;;;;;;;6.55;52.01;101649.94;4916341;29;20068;-90
2022/03/26 03:49:43;;;;;;;43.97;18.95;;;;;;;6.12;51.24;101585.50;4916905;29;20725;-88
2022/03/26 03:52:17;;;;;;;36.03;18.83;;;;;;;6.10;51.14;101587.25;4914824;29;20059;-87
2022/03/26 03:54:48;;;;;;;37.85;18.83;;;;;;;6.34;51.74;101636.97;4913608;29;20058;-88
2022/03/26 03:57:17;;;;;;;37.28;18.08;;;;;;;6.16;51.79;101605.59;4902987;29;20048;-89
2022/03/26 03:59:51;;;;;;;35.28;19.02;;;;;;;6.03;51.89;101591.69;4915494;29;20052;-87
2022/03/26 04:02:21;;;;;;;41.17;18.95;;;;;;;6.41;52.50;101651.84;4919883;29;20056;-89
2022/03/26 04:04:49;;;;;;;35.08;18.15;;;;;;;6.42;52.88;101643.06;4916591;29;20082;-87
2022/03/26 04:07:17;;;;;;;37.47;19.27;;;;;;;6.11;52.98;101605.66;4916644;29;20063;-90
2022/03/26 04:09:53;;;;;;;36.95;18.80;;;;;;;6.25;52.78;101626.56;4914273;29;20076;-86
2022/03/26 04:12:21;;;;;;;41.83;19.35;;;;;;;6.16;52.81;101614.34;4915350;29;20055;-88
2022/03/26 04:14:54;;;;;;;38.20;19.48;;;;;;;6.17;53.35;101631.00;4920595;29;20060;-90
2022/03/26 04:17:30;;;;;;;33.90;18.52;;;;;;;6.26;53.60;101641.47;4919730;29;20048;-88
2022/03/26 04:20:09;;;;;;;36.78;19.60;;;;;;;6.34;53.06;101651.00;4915031;29;20055;-87
2022/03/26 04:22:46;;;;;;;37.95;20.15;;;;;;;6.39;53.57;101669.41;4885098;29;20058;-88
2022/03/26 04:25:27;;;;;;;34.97;19.15;;;;;;;6.23;53.76;101649.38;4915791;29;20103;-88
2022/03/26 04:27:58;;;;;;;40.95;19.40;;;;;;;6.09;53.88;101628.47;4919889;29;20059;-88
2022/03/26 04:30:28;;;;;;;39.08;19.15;;;;;;;6.09;53.94;101640.75;4911164;29;20136;-86
2022/03/26 04:32:59;;;;;;;41.03;20.73;;;;;;;6.18;53.77;101651.16;4916748;29;20055;-88
2022/03/26 04:35:27;;;;;;;38.40;19.80;;;;;;;5.95;54.15;101618.06;4912904;29;20139;-86
2022/03/26 04:38:10;;;;;;;36.10;18.73;;;;;;;6.02;54.04;101647.78;4920196;29;20052;-88
2022/03/26 04:40:38;;;;;;;36.35;19.08;;;;;;;5.99;54.71;101640.81;4921644;29;20204;-87
2022/03/26 04:43:08;;;;;;;34.55;18.70;;;;;;;6.02;54.84;101655.69;4930337;29;20104;-88
2022/03/26 04:45:35;;;;;;;36.65;18.55;;;;;;;5.79;54.45;101618.19;4926980;29;20058;-88
2022/03/26 04:48:08;;;;;;;40.55;19.67;;;;;;;6.19;54.57;101681.84;4922142;29;20411;-88
2022/03/26 04:50:36;;;;;;;37.10;18.95;;;;;;;6.04;55.11;101664.44;4919932;29;20768;-89
2022/03/26 04:53:05;;;;;;;42.80;20.88;;;;;;;6.02;54.89;101663.56;4898013;29;20153;-88
2022/03/26 04:55:35;;;;;;;39.35;19.65;;;;;;;5.83;55.20;101628.63;4919383;29;20609;-87
2022/03/26 04:58:05;;;;;;;37.42;19.65;;;;;;;6.00;56.01;101662.72;4919732;29;20040;-91
2022/03/26 05:00:42;;;;;;;38.03;20.83;;;;;;;5.84;55.36;101643.53;4899145;29;20156;-91
2022/03/26 05:03:24;;;;;;;37.40;19.77;;;;;;;6.16;55.46;101688.00;4922276;29;20059;-87
2022/03/26 05:05:53;;;;;;;41.97;20.33;;;;;;;5.89;55.54;101641.78;4920100;29;20439;-89
2022/03/26 05:08:30;;;;;;;43.88;20.30;;;;;;;6.06;56.29;101675.81;4922189;29;20055;-87
2022/03/26 05:10:59;;;;;;;40.15;21.10;;;;;;;5.83;56.43;101651.41;4902084;29;20323;-88
2022/03/26 05:13:30;;;;;;;37.93;20.07;;;;;;;6.00;56.59;101681.13;4898952;29;20368;-87
2022/03/26 05:16:22;;;;;;;40.35;21.35;;;;;;;6.03;56.83;101691.63;4896931;29;20051;-87
2022/03/26 05:18:50;;;;;;;37.28;19.92;;;;;;;5.80;57.07;101651.47;4901427;29;20076;-89
2022/03/26 05:21:18;;;;;;;39.97;19.45;;;;;;;6.03;57.20;101688.97;4898651;29;20068;-88
2022/03/26 05:23:48;;;;;;;40.55;20.80;;;;;;;6.05;57.39;101691.59;4900229;29;20045;-87
2022/03/26 05:26:16;;;;;;;39.38;21.13;;;;;;;6.08;57.24;101692.47;4897327;29;20048;-86
2022/03/26 05:28:48;;;;;;;42.25;20.88;;;;;;;6.10;58.01;101693.31;4897907;29;20060;-89
2022/03/26 05:31:17;;;;;;;42.22;20.75;;;;;;;6.11;57.68;101688.94;4899851;29;21738;-88
2022/03/26 05:33:47;;;;;;;38.13;19.98;;;;;;;6.06;57.52;101688.97;4900143;29;20048;-88
2022/03/26 05:36:26;;;;;;;40.60;20.85;;;;;;;6.16;57.26;101697.66;4901396;29;20083;-89
2022/03/26 05:38:56;;;;;;;41.30;21.58;;;;;;;5.91;58.01;101655.78;4900672;29;20048;-87
2022/03/26 05:41:24;;;;;;;40.42;21.50;;;;;;;5.83;57.50;101641.78;4903550;29;20117;-88
2022/03/26 05:44:05;;;;;;;41.47;21.17;;;;;;;5.82;57.88;101639.19;4909038;29;20243;-87
2022/03/26 05:46:37;;;;;;;39.80;21.38;;;;;;;6.03;58.03;101673.22;4905205;29;20155;-89
2022/03/26 05:49:09;;;;;;;43.42;21.23;;;;;;;6.23;57.72;101710.75;4898600;29;20053;-89
2022/03/26 05:51:48;;;;;;;41.38;20.98;;;;;;;6.36;57.65;101722.03;4902028;29;20058;-90
2022/03/26 05:54:33;;;;;;;43.10;21.80;;;;;;;6.40;57.10;101717.63;4905731;29;20052;-90
2022/03/26 05:57:00;;;;;;;41.55;22.05;;;;;;;6.23;57.11;101686.19;4903812;29;20045;-86
2022/03/26 05:59:30;;;;;;;46.20;21.27;;;;;;;6.29;57.01;101694.94;4903145;29;20060;-90
2022/03/26 06:02:04;;;;;;;45.70;21.55;;;;;;;6.33;57.68;101691.34;4906949;29;20406;-86
2022/03/26 06:04:37;;;;;;;42.53;21.02;;;;;;;6.38;57.36;101699.22;4911757;29;20073;-88
2022/03/26 06:07:08;;;;;;;45.38;23.15;;;;;;;6.69;57.28;101732.25;4900040;29;20079;-89
2022/03/26 06:09:37;;;;;;;38.20;21.27;;;;;;;6.66;57.07;101719.13;4891586;29;20048;-88
2022/03/26 06:12:19;;;;;;;38.60;20.88;;;;;;;6.56;56.67;101691.16;4923082;29;20044;-87
2022/03/26 06:14:54;;;;;;;43.40;21.80;;;;;;;6.85;56.41;101726.84;4907085;29;20052;-87
2022/03/26 06:17:37;;;;;;;41.47;22.38;;;;;;;6.81;56.46;101706.69;4930596;29;20357;-88
2022/03/26 06:20:12;;;;;;;44.65;23.48;;;;;;;6.80;56.40;101695.28;4913696;29;20060;-85
2022/03/26 06:22:39;;;;;;;40.97;21.85;;;;;;;7.01;55.96;101720.50;4925236;29;20044;-89
2022/03/26 06:25:08;;;;;;;46.03;21.83;;;;;;;6.99;56.06;101695.94;4910714;29;20047;-90
2022/03/26 06:27:54;;;;;;;44.28;22.70;;;;;;;7.29;55.13;101745.63;4921043;29;20103;-88
2022/03/26 06:30:24;;;;;;;43.50;22.35;;;;;;;7.16;55.32;101707.16;4924079;29;20139;-90
2022/03/26 06:33:07;;;;;;;39.38;22.23;;;;;;;7.28;55.19;101712.28;4915171;29;20045;-88
2022/03/26 06:35:44;;;;;;;39.92;21.42;;;;;;;7.09;54.99;101675.63;4893536;29;20626;-89
2022/03/26 06:38:31;;;;;;;43.10;23.00;;;;;;;7.30;54.86;101694.69;4910193;29;20533;-87
2022/03/26 06:41:12;;;;;;;44.20;22.58;;;;;;;7.67;54.92;101741.66;4917290;29;20056;-89
2022/03/26 06:43:41;;;;;;;45.08;22.45;;;;;;;7.61;54.27;101725.91;4902617;29;20059;-87
2022/03/26 06:46:09;;;;;;;44.28;23.25;;;;;;;7.79;54.09;101741.47;4900286;29;20070;-91
2022/03/26 06:48:53;;;;;;;42.88;23.52;;;;;;;7.79;53.62;101719.50;4917297;29;20049;-88
2022/03/26 06:51:38;;;;;;;43.08;22.15;;;;;;;8.08;53.63;101748.97;4892367;29;20056;-89
2022/03/26 06:54:32;;;;;;;44.88;22.60;;;;;;;7.99;53.10;101720.09;4913066;29;20052;-88
2022/03/26 06:57:24;;;;;;;45.97;23.08;;;;;;;8.33;52.41;101754.78;4903462;29;20086;-88
2022/03/26 07:00:26;;;;;;;44.95;22.92;;;;;;;8.28;52.31;101741.63;4921429;29;20048;-90
2022/03/26 07:03:05;;;;;;;42.97;22.67;;;;;;;8.35;53.21;101745.91;4918783;29;20055;-90
2022/03/26 07:05:35;;;;;;;46.22;23.15;;;;;;;8.24;52.03;101707.38;4917980;29;20056;-89
2022/03/26 07:08:09;;;;;;;44.58;23.40;;;;;;;8.42;51.75;101723.81;4921104;29;20115;-88
2022/03/26 07:10:51;;;;;;;42.67;23.65;;;;;;;8.52;51.96;101715.72;4905254;29;20056;-89
2022/03/26 07:13:20;;;;;;;45.88;23.15;;;;;;;8.65;51.30;101731.34;4900258;29;20056;-89
2022/03/26 07:16:07;;;;;;;45.85;24.48;;;;;;;9.00;51.34;101767.66;4897737;29;20072;-88
2022/03/26 07:18:47;;;;;;;47.60;24.63;;;;;;;8.88;50.95;101716.84;4898155;29;20487;-88
2022/03/26 07:21:37;;;;;;;45.25;23.58;;;;;;;8.95;51.15;101729.03;4912504;29;20060;-87
2022/03/26 07:24:24;;;;;;;44.38;24.40;;;;;;;8.91;50.39;101701.81;4915267;29;20037;-87
2022/03/26 07:27:29;;;;;;;42.88;23.15;;;;;;;9.53;49.70;101776.31;5452285;23;20044;-91
2022/03/26 07:30:13;;;;;;;44.00;24.30;;;;;;;9.49;49.42;101749.06;5191693;23;20101;-90
2022/03/26 07:33:03;;;;;;;47.00;24.48;;;;;;;9.45;49.29;101714.78;4998383;23;20071;-94
2022/03/26 07:35:37;;;;;;;45.05;23.80;;;;;;;9.81;48.19;101751.00;4918558;29;20100;-94
2022/03/26 07:38:21;;;;;;;43.33;23.23;;;;;;;9.74;50.06;101720.31;4943285;29;20757;-91
2022/03/26 07:41:01;;;;;;;46.50;24.42;;;;;;;9.86;48.02;101716.53;4944845;29;20054;-91
2022/03/26 07:43:42;;;;;;;44.33;23.75;;;;;;;10.34;47.76;101785.13;4948961;28;20051;-91
2022/03/26 07:49:34;;;;;;;46.33;23.27;;;;;;;10.66;46.93;101801.09;5057631;23;20047;-92
2022/03/26 07:52:46;;;;;;;;;;;;;;;;;;;;;
2022/03/26 08:01:29;;;;;;;39.80;24.17;;;;;;;11.14;45.79;101804.28;5571779;23;20053;-90
2022/03/26 08:04:29;;;;;;;49.00;26.20;;;;;;;10.80;45.61;101732.75;4946923;29;20047;-92
2022/03/26 08:06:59;;;;;;;45.35;24.48;;;;;;;11.25;45.44;101799.53;5174775;23;20118;-89
2022/03/26 08:09:45;;;;;;;50.63;25.25;;;;;;;10.95;45.74;101736.75;5083304;23;20278;-91
2022/03/26 08:13:03;;;;;;;44.20;24.88;;;;;;;11.32;45.70;101764.91;5078172;23;20060;-91
2022/03/26 08:15:53;;;;;;;45.20;24.40;;;;;;;11.75;45.33;101815.81;4944714;29;20111;-91
2022/03/26 08:18:37;;;;;;;45.92;25.33;;;;;;;11.87;45.04;101804.84;4946455;29;20505;-93
2022/03/26 08:21:36;;;;;;;43.92;25.00;;;;;;;11.78;44.92;101772.44;5242008;23;20090;-93
2022/03/26 08:24:18;;;;;;;46.28;25.63;;;;;;;12.12;44.75;101807.63;4918072;29;20115;-91
2022/03/26 08:30:12;;;;;;;;;;;;;;;12.44;43.74;101813.72;5002121;23;20124;-93
2022/03/26 08:34:11;;;;;;;;;;;;;;;;;;;;;
2022/03/26 08:41:37;;;;;;;43.38;25.38;;;;;;;13.09;42.94;101815.97;4894129;29;20097;-93
2022/03/26 08:50:21;;;;;;;47.20;25.25;;;;;;;13.27;42.18;101759.47;4914150;29;20056;-94
2022/03/26 08:53:34;;;;;;;44.10;24.77;;;;;;;13.39;41.44;101747.50;4917291;29;20128;-93
2022/03/26 08:56:15;;;;;;;43.80;26.35;;;;;;;13.51;40.85;101745.28;4878771;29;20056;-95
2022/03/26 08:58:58;;;;;;;;;;;;;;;13.86;41.45;101806.94;4911156;29;20028;-94
2022/03/26 09:01:41;;;;;;;42.60;24.73;;;;;;;13.55;41.17;101744.22;4922069;29;19951;-95
2022/03/26 09:04:24;;;;;;;48.88;25.98;;;;;;;14.17;41.20;101809.28;4912020;29;20080;-95
2022/03/26 09:07:04;;;;;;;49.17;25.75;;;;;;;14.65;40.32;101814.47;4930886;29;20064;-93
2022/03/26 09:09:45;;;;;;;46.55;26.38;;;;;;;14.74;38.95;101740.31;4943258;29;20114;-93
2022/03/26 09:12:15;;;;;;;48.33;26.25;;;;;;;15.50;37.72;101772.53;4931681;29;20099;-94
2022/03/26 09:14:52;;;;;;;45.95;26.88;;;;;;;15.94;37.23;101767.81;4916251;29;20060;-94
2022/03/26 09:17:32;;;;;;;38.95;24.60;;;;;;;16.50;35.25;101724.97;4923736;29;20048;-92
2022/03/26 09:20:19;;;;;;;42.90;25.73;;;;;;;17.16;34.14;101757.22;4936746;29;20048;-93
2022/03/26 09:22:48;;;;;;;43.10;25.08;;;;;;;17.51;33.78;101742.81;4937781;29;20051;-93
2022/03/26 09:25:23;;;;;;;43.55;26.65;;;;;;;17.52;33.41;101732.97;4932383;29;20032;-93
2022/03/26 09:28:10;;;;;;;42.70;26.02;;;;;;;18.18;33.00;101786.47;4928036;29;20088;-94
2022/03/26 09:30:40;;;;;;;40.72;25.65;;;;;;;18.71;32.14;101801.34;4939603;29;20059;-94
2022/03/26 09:33:22;;;;;;;42.65;25.80;;;;;;;18.87;31.62;101761.91;4931783;29;20070;-95
2022/03/26 09:35:51;;;;;;;42.55;27.05;;;;;;;19.14;30.39;101729.84;4924332;29;20092;-95
2022/03/26 09:38:28;;;;;;;40.80;25.73;;;;;;;19.64;29.35;101785.81;4930607;29;20142;-92
2022/03/26 09:40:59;;;;;;;39.53;24.02;;;;;;;19.21;30.15;101733.84;4925871;29;20063;-95
2022/03/26 09:43:38;;;;;;;39.55;26.67;;;;;;;19.34;30.11;101760.84;4930569;29;20071;-93
2022/03/26 09:46:35;;;;;;;38.38;24.95;;;;;;;19.85;29.67;101779.06;4928766;29;20044;-93
2022/03/26 09:49:05;;;;;;;45.10;26.30;;;;;;;19.65;29.69;101763.34;4932368;29;20048;-92
2022/03/26 09:51:34;;;;;;;41.10;25.75;;;;;;;20.02;28.72;101777.13;4931263;29;20100;-91
2022/03/26 09:54:16;;;;;;;38.92;24.08;;;;;;;20.10;29.00;101764.06;4926105;29;20044;-93
2022/03/26 09:56:50;;;;;;;39.83;24.75;;;;;;;20.50;27.53;101730.88;4939467;29;20051;-95
2022/03/26 09:59:28;;;;;;;38.67;25.73;;;;;;;20.87;27.37;101760.69;4933840;29;20052;-94
2022/03/26 10:02:03;;;;;;;39.80;25.85;;;;;;;21.25;26.46;101772.38;4936845;29;20048;-93
2022/03/26 10:04:43;;;;;;;42.30;25.83;;;;;;;21.06;26.57;101755.78;4910340;29;20056;-95
2022/03/26 10:07:12;;;;;;;37.70;25.17;;;;;;;20.74;27.36;101762.50;4923797;29;20052;-92
2022/03/26 10:09:55;;;;;;;36.40;24.58;;;;;;;20.94;26.75;101754.75;4906349;29;20062;-94
2022/03/26 10:12:28;;;;;;;38.72;23.48;;;;;;;21.58;26.34;101787.16;4929612;29;20498;-94
2022/03/26 10:15:08;;;;;;;35.70;23.17;;;;;;;21.91;25.49;101744.28;4931166;29;20136;-94
2022/03/26 10:17:46;;;;;;;38.00;23.40;;;;;;;22.38;24.76;101727.28;4936808;29;20060;-94
2022/03/26 10:20:59;;;;;;;39.05;23.27;;;;;;;22.83;24.68;101759.88;4932091;29;20082;-93
2022/03/26 10:23:33;;;;;;;33.00;22.45;;;;;;;23.32;23.44;101738.00;4930918;29;20474;-94
2022/03/26 10:26:22;;;;;;;32.85;20.88;;;;;;;23.09;24.11;101738.97;4906510;29;20561;-91
2022/03/26 10:28:55;;;;;;;32.80;20.40;;;;;;;23.75;22.82;101731.91;4913545;29;20297;-94
2022/03/26 10:35:08;;;;;;;29.45;19.67;;;;;;;25.08;22.02;101752.25;4932096;29;20048;-92
2022/03/26 10:38:05;;;;;;;42.35;23.60;;;;;;;24.88;21.77;101735.97;4935246;29;20079;-93
2022/03/26 10:40:40;;;;;;;33.10;21.42;;;;;;;24.77;22.16;101761.28;4933277;29;20054;-94
2022/03/26 10:43:36;;;;;;;29.15;20.17;;;;;;;25.18;21.64;101772.16;4935413;29;20047;-93
2022/03/26 10:46:23;;;;;;;32.13;21.65;;;;;;;24.92;21.25;101702.19;4935575;29;20336;-94
2022/03/26 10:49:16;;;;;;;30.40;20.88;;;;;;;25.32;21.31;101770.13;4937197;29;20111;-95
2022/03/26 10:52:26;;;;;;;26.20;18.15;;;;;;;25.50;21.12;101757.63;4935166;29;20083;-94
2022/03/26 10:59:24;;;;;;;26.90;19.00;;;;;;;25.17;20.65;101699.13;4927722;29;20056;-94
2022/03/26 11:02:23;;;;;;;30.20;18.90;;;;;;;25.35;21.78;101729.16;4922368;29;20051;-93
2022/03/26 11:05:16;;;;;;;28.75;19.77;;;;;;;26.05;20.50;101739.16;4927763;29;20056;-92
2022/03/26 11:08:14;;;;;;;30.48;20.40;;;;;;;26.37;20.14;101685.50;4940934;29;20048;-95
2022/03/26 11:11:34;;;;;;;;;;;;;;;;;;;;;
2022/03/26 11:25:46;;;;;;;33.15;21.30;;;;;;;26.85;20.97;101731.66;5719796;22;15254724;-94
2022/03/26 11:33:36;;;;;;;30.55;21.50;;;;;;;28.16;19.68;101724.28;6398877;22;20009;-94
2022/03/26 11:36:40;;;;;;;28.83;19.90;;;;;;;28.11;18.99;101666.69;6402541;22;20022;-93
2022/03/26 11:39:24;;;;;;;27.40;19.88;;;;;;;28.03;18.25;101650.25;6405288;22;20022;-93
2022/03/26 11:42:41;;;;;;;28.75;17.83;;;;;;;27.70;19.04;101689.06;6379033;22;20018;-94
2022/03/26 11:55:22;;;;;;;25.63;17.42;;;;;;;28.21;18.09;101700.19;6396845;22;20022;-93
2022/03/26 11:58:27;;;;;;;23.27;15.73;;;;;;;28.36;17.96;101664.22;6402701;22;19999;-94
2022/03/26 12:01:26;;;;;;;23.02;18.08;;;;;;;28.52;17.72;101653.47;6397961;22;20291;-93
2022/03/26 12:04:31;;;;;;;29.45;19.45;;;;;;;27.92;19.03;101684.03;6372375;22;20018;-94
2022/03/26 12:07:32;;;;;;;31.75;19.52;;;;;;;27.46;20.02;101671.38;6391562;22;20169;-94
2022/03/26 12:10:15;;;;;;;27.70;18.95;;;;;;;27.53;19.60;101677.94;6363827;22;20339;-94
2022/03/26 12:13:32;;;;;;;25.40;16.77;;;;;;;26.88;19.46;101600.88;6388314;22;20029;-95
2022/03/26 12:16:16;;;;;;;28.25;18.85;;;;;;;27.63;19.49;101614.47;6350063;22;20030;-93
2022/03/26 12:19:03;;;;;;;27.10;17.23;;;;;;;27.96;19.55;101632.84;6381175;22;20018;-94
2022/03/26 12:21:51;;;;;;;22.98;17.00;;;;;;;28.55;18.26;101615.00;6361828;22;20048;-92
2022/03/26 12:25:00;;;;;;;27.77;17.98;;;;;;;28.96;17.92;101597.91;6390804;22;20014;-93
2022/03/26 12:27:45;;;;;;;26.92;18.90;;;;;;;28.65;18.03;101618.47;6366748;22;20061;-94
2022/03/26 12:31:04;;;;;;;30.20;19.50;;;;;;;27.84;18.87;101579.66;6393199;22;20326;-96
2022/03/26 12:34:26;;;;;;;;;;;;;;;;;;;;;
2022/03/26 12:37:16;;;;;;;27.60;17.95;;;;;;;28.51;17.90;101616.31;6317384;22;20018;-94
2022/03/26 12:40:07;;;;;;;26.73;18.63;;;;;;;27.50;18.74;101574.00;6316452;22;20019;-92
2022/03/26 12:43:00;;;;;;;29.33;18.02;;;;;;;27.10;19.12;101612.41;6362413;22;20093;-93
2022/03/26 12:45:32;;;;;;;25.38;17.73;;;;;;;27.11;19.57;101581.50;6387091;22;20018;-93
2022/03/26 12:48:26;;;;;;;26.65;18.52;;;;;;;27.24;19.53;101599.16;6385105;22;20018;-93
2022/03/26 12:51:04;;;;;;;26.48;18.98;;;;;;;27.37;19.56;101568.91;6359423;22;20024;-95
2022/03/26 12:54:04;;;;;;;25.42;17.92;;;;;;;27.58;19.43;101583.13;6384285;22;20022;-92
2022/03/26 13:00:11;;;;;;;23.00;17.23;;;;;;;28.22;18.08;101549.38;6390737;22;20018;-92
2022/03/26 13:10:24;;;;;;;16.92;13.80;;;;;;;29.21;17.59;101617.97;6372403;22;20040;-95
2022/03/26 13:13:07;;;;;;;19.95;13.07;;;;;;;29.51;16.72;101564.75;6387542;22;20018;-95
2022/03/26 13:16:29;;;;;;;23.85;16.38;;;;;;;29.93;16.57;101586.47;6383320;22;20022;-94
2022/03/26 13:19:45;;;;;;;24.38;16.25;;;;;;;30.65;16.06;101551.13;6370886;22;20021;-94
2022/03/26 13:23:26;;;;;;;;;;;;;;;;;;;;;
2022/03/26 13:26:13;;;;;;;19.02;15.30;;;;;;;29.71;16.20;101524.34;6325012;22;20018;-95
2022/03/26 13:29:27;;;;;;;23.85;15.05;;;;;;;29.18;16.75;101532.88;6384072;22;20018;-95
2022/03/26 13:32:10;;;;;;;22.77;15.45;;;;;;;29.07;17.35;101555.00;6384675;22;20019;-96
2022/03/26 13:34:49;;;;;;;23.25;15.55;;;;;;;28.95;17.40;101558.03;6382929;22;20025;-95
2022/03/26 13:37:23;;;;;;;22.58;16.13;;;;;;;28.62;17.12;101528.88;6385008;22;20014;-94
2022/03/26 13:40:03;;;;;;;23.77;15.52;;;;;;;28.72;17.39;101523.28;6387291;22;20028;-96
2022/03/26 13:42:52;;;;;;;25.38;14.77;;;;;;;29.79;16.90;101589.88;6366058;22;20042;-95
2022/03/26 13:45:31;;;;;;;;;;;;;;;;;;;;;
2022/03/26 13:51:27;;;;;;;17.80;13.77;;;;;;;30.35;16.46;101525.38;6421792;22;20028;-95
2022/03/26 13:54:19;;;;;;;21.20;14.18;;;;;;;30.02;17.15;101537.38;6335114;22;20018;-94
2022/03/26 13:56:59;;;;;;;22.23;13.57;;;;;;;29.72;16.51;101569.75;6393182;22;20451;-95
2022/03/26 14:02:46;;;;;;;18.10;12.68;;;;;;;30.63;16.62;101558.66;6391325;22;20034;-93
2022/03/26 14:05:36;;;;;;;18.90;11.48;;;;;;;31.21;15.23;101510.94;6389222;22;20066;-95
2022/03/26 14:14:10;;;;;;;15.63;11.23;;;;;;;31.29;15.06;101557.41;6373066;22;20020;-94
2022/03/26 14:17:06;;;;;;;19.52;10.90;;;;;;;31.27;15.25;101548.53;6394320;22;20384;-92
2022/03/26 14:20:27;;;;;;;12.82;9.50;;;;;;;31.36;14.64;101488.09;6396286;22;20030;-92
2022/03/26 14:23:24;;;;;;;15.07;10.25;;;;;;;31.89;14.36;101535.66;6381831;22;20077;-95
2022/03/26 14:26:46;;;;;;;18.13;11.77;;;;;;;31.43;14.28;101476.41;6379334;22;20018;-94
2022/03/26 14:29:48;;;;;;;19.40;11.33;;;;;;;31.10;14.32;101514.03;6369801;22;20022;-93
2022/03/26 14:32:49;;;;;;;;;;;;;;;;;;;;;
2022/03/26 14:35:43;;;;;;;16.98;10.52;;;;;;;31.44;14.55;101473.50;6324634;22;20045;-94
2022/03/26 14:38:51;;;;;;;16.05;9.98;;;;;;;32.87;13.39;101502.66;6390270;22;20018;-92
2022/03/26 14:42:16;;;;;;;21.05;11.35;;;;;;;32.35;13.73;101478.91;6386566;22;20018;-94
2022/03/26 14:45:22;;;;;;;13.35;10.95;;;;;;;32.65;13.67;101509.06;6380538;22;20018;-96
2022/03/26 14:48:38;;;;;;;19.08;11.75;;;;;;;32.15;13.59;101513.31;6386821;22;20021;-94
2022/03/26 14:51:59;;;;;;;17.48;11.85;;;;;;;31.52;14.20;101528.19;6388039;22;20044;-93
2022/03/26 14:57:51;;;;;;;20.98;12.18;;;;;;;30.42;15.29;101498.19;6370943;22;20018;-93
2022/03/26 15:00:32;;;;;;;22.27;12.02;;;;;;;30.14;15.11;101490.41;6371671;22;20100;-91
2022/03/26 15:03:13;;;;;;;17.95;12.63;;;;;;;30.15;15.52;101493.97;6391561;22;20022;-92
2022/03/26 15:06:54;;;;;;;23.33;13.40;;;;;;;29.65;15.93;101525.00;6392934;22;20097;-95
2022/03/26 15:13:18;;;;;;;20.08;13.43;;;;;;;29.09;16.51;101488.38;6388772;22;20027;-94
2022/03/26 15:19:30;;;;;;;24.30;14.30;;;;;;;29.22;16.63;101520.63;6384903;22;20026;-96
2022/03/26 15:22:40;;;;;;;21.13;13.90;;;;;;;26.66;19.58;101497.97;6389682;22;20046;-94
2022/03/26 15:25:58;;;;;;;;;;;;;;;26.82;19.66;101519.09;6393847;22;20015;-93
2022/03/26 15:28:44;;;;;;;24.15;14.48;;;;;;;27.38;18.45;101453.66;6393581;22;19967;-94
2022/03/26 15:32:01;;;;;;;;;;;;;;;;;;;;;
2022/03/26 15:34:59;;;;;;;23.40;14.82;;;;;;;27.90;18.13;101516.41;6356742;22;20037;-96
2022/03/26 15:37:37;;;;;;;28.23;14.35;;;;;;;27.67;18.71;101502.44;6388564;22;20046;-95
2022/03/26 15:40:44;;;;;;;20.08;12.82;;;;;;;26.65;19.50;101493.56;6365586;22;20026;-93
2022/03/26 15:43:35;;;;;;;22.25;13.25;;;;;;;24.50;21.52;101480.16;6367547;22;20074;-93
2022/03/26 15:46:21;;;;;;;24.30;13.32;;;;;;;22.69;23.39;101447.69;6382558;22;20049;-93
2022/03/26 15:49:06;;;;;;;18.95;12.50;;;;;;;21.96;24.67;101518.25;6359317;22;20022;-92
2022/03/26 15:52:12;;;;;;;17.05;11.15;;;;;;;20.72;26.60;101460.25;6387623;22;20029;-92
2022/03/26 15:55:05;;;;;;;19.35;11.63;;;;;;;20.71;26.59;101513.22;6387553;22;20070;-94
2022/03/26 15:58:04;;;;;;;;;;;;;;;;;;;;;
2022/03/26 16:01:08;;;;;;;19.98;11.65;;;;;;;19.94;27.70;101495.34;6388583;22;20048;-93
2022/03/26 16:04:03;;;;;;;19.13;10.80;;;;;;;19.66;28.00;101479.38;6363565;22;20029;-93
2022/03/26 16:06:43;;;;;;;18.27;10.25;;;;;;;19.50;28.34;101477.72;6359346;22;20151;-92
2022/03/26 16:09:32;;;;;;;20.90;10.50;;;;;;;19.60;28.80;101520.94;6385499;22;20071;-94
2022/03/26 16:12:21;;;;;;;18.83;10.18;;;;;;;19.30;29.04;101488.88;6369805;22;20184;-93
2022/03/26 16:15:21;;;;;;;;;;;;;;;;;;;;;
2022/03/26 16:18:42;;;;;;;19.55;8.77;;;;;;;19.01;28.92;101480.06;6386414;22;20071;-94
2022/03/26 16:22:05;;;;;;;13.88;7.68;;;;;;;18.83;28.99;101489.28;6350704;22;20022;-94
2022/03/26 16:25:19;;;;;;;12.57;7.45;;;;;;;18.96;29.33;101526.94;6362927;22;20022;-92